createdAt,value
2024-04-01T00:03:34.731Z,97396.12
2024-04-01T00:08:37.954Z,97408.52
2024-04-01T00:13:40.888Z,97413.37
2024-04-01T00:18:43.813Z,97416.00
2024-04-01T00:23:50.290Z,97406.86
2024-04-01T00:28:53.225Z,97417.89
2024-04-01T00:33:59.318Z,97421.55
2024-04-01T00:39:02.356Z,97421.23
2024-04-01T00:44:05.361Z,97418.98
2024-04-01T00:49:09.738Z,97413.89
2024-04-01T00:54:15.184Z,97410.73
2024-04-01T00:59:19.340Z,97403.95
2024-04-01T01:04:22.723Z,97396.98
2024-04-01T01:09:26.535Z,97397.02
2024-04-01T01:14:29.515Z,97406.66
2024-04-01T01:19:32.687Z,97407.65
2024-04-01T01:24:35.688Z,97410.80
2024-04-01T01:29:38.605Z,97416.39
2024-04-01T01:34:43.362Z,97410.91
2024-04-01T01:39:46.342Z,97404.39
2024-04-01T01:44:49.266Z,97399.91
2024-04-01T01:49:52.217Z,97405.85
2024-04-01T01:54:56.214Z,97414.85
2024-04-01T01:59:59.403Z,97413.98
2024-04-01T02:05:02.502Z,97415.92
2024-04-01T02:10:05.747Z,97415.02
2024-04-01T02:15:09.105Z,97420.60
2024-04-01T02:20:17.461Z,97411.27
2024-04-01T02:25:20.486Z,97420.52
2024-04-01T02:30:23.829Z,97423.98
2024-04-01T02:35:26.810Z,97429.73
2024-04-01T02:40:30.816Z,97414.31
2024-04-01T02:45:33.876Z,97412.55
2024-04-01T02:50:37.836Z,97412.05
2024-04-01T02:55:40.793Z,97412.17
2024-04-01T03:00:47.211Z,97412.98
2024-04-01T03:05:50.316Z,97413.44
2024-04-01T03:10:59.877Z,97403.64
2024-04-01T03:16:06.770Z,97391.40
2024-04-01T03:21:10.108Z,97379.64
2024-04-01T03:26:13.814Z,97380.63
2024-04-01T03:31:16.719Z,97373.96
2024-04-01T03:36:22.139Z,97371.14
2024-04-01T03:41:26.580Z,97369.30
2024-04-01T03:46:29.605Z,97375.04
2024-04-01T03:51:32.545Z,97368.24
2024-04-01T03:56:36.356Z,97386.41
2024-04-01T04:01:41.412Z,97400.14
2024-04-01T04:06:44.481Z,97390.59
2024-04-01T04:11:50.759Z,97398.20
2024-04-01T04:16:53.978Z,97393.45
2024-04-01T04:21:56.945Z,97395.15
2024-04-01T04:26:59.952Z,97394.05
2024-04-01T04:32:10.638Z,97394.30
2024-04-01T04:37:13.649Z,97396.02
2024-04-01T04:42:16.588Z,97387.42
2024-04-01T04:47:20.563Z,97388.67
2024-04-01T04:52:23.519Z,97375.55
2024-04-01T04:57:27.241Z,97366.71
2024-04-01T05:02:30.153Z,97362.62
2024-04-01T05:07:34.284Z,97354.41
2024-04-01T05:12:37.258Z,97334.61
2024-04-01T05:17:40.303Z,97334.64
2024-04-01T05:22:43.322Z,97338.25
2024-04-01T05:27:46.338Z,97326.23
2024-04-01T05:32:49.325Z,97333.34
2024-04-01T05:37:52.328Z,97330.05
2024-04-01T05:42:55.389Z,97320.64
2024-04-01T05:47:58.384Z,97305.65
2024-04-01T05:53:01.339Z,97304.09
2024-04-01T05:58:04.435Z,97291.73
2024-04-01T06:03:07.452Z,97285.71
2024-04-01T06:08:10.347Z,97280.19
2024-04-01T06:13:14.917Z,97268.00
2024-04-01T06:18:17.902Z,97273.06
2024-04-01T06:23:22.566Z,97285.79
2024-04-01T06:28:25.635Z,97288.75
2024-04-01T06:33:28.622Z,97283.98
2024-04-01T06:38:32.810Z,97277.89
2024-04-01T06:43:36.794Z,97306.92
2024-04-01T06:48:40.004Z,97323.16
2024-04-01T06:53:42.887Z,97325.18
2024-04-01T06:58:45.993Z,97320.23
2024-04-01T07:03:48.946Z,97287.98
2024-04-01T07:08:53.375Z,97294.45
2024-04-01T07:13:56.330Z,97272.83
2024-04-01T07:18:59.368Z,97263.52
2024-04-01T07:24:02.291Z,97252.05
2024-04-01T07:29:05.649Z,97240.07
2024-04-01T07:34:08.682Z,97224.15
2024-04-01T07:39:11.679Z,97218.13
2024-04-01T07:44:14.660Z,97219.44
2024-04-01T07:49:17.647Z,97229.07
2024-04-01T07:54:21.644Z,97239.16
2024-04-01T07:59:25.494Z,97233.85
2024-04-01T08:04:29.402Z,97231.16
2024-04-01T08:09:32.435Z,97228.33
2024-04-01T08:14:36.506Z,97223.28
2024-04-01T08:19:39.627Z,97223.75
2024-04-01T08:24:42.938Z,97220.48
2024-04-01T08:29:47.007Z,97201.06
2024-04-01T08:34:50.094Z,97194.54
2024-04-01T08:39:53.177Z,97179.95
2024-04-01T08:45:00.560Z,97170.11
2024-04-01T08:50:09.668Z,97160.70
2024-04-01T08:55:16.798Z,97150.83
2024-04-01T09:00:22.109Z,97152.89
2024-04-01T09:05:25.106Z,97145.45
2024-04-01T09:10:28.281Z,97146.05
2024-04-01T09:15:31.266Z,97144.20
2024-04-01T09:20:34.421Z,97129.50
2024-04-01T09:25:38.118Z,97137.62
2024-04-01T09:30:42.232Z,97129.52
2024-04-01T09:35:45.743Z,97129.67
2024-04-01T09:40:58.999Z,97124.63
2024-04-01T09:46:05.108Z,97119.64
2024-04-01T09:51:13.982Z,97115.32
2024-04-01T09:56:35.524Z,97114.69
2024-04-01T10:02:21.033Z,97118.53
2024-04-01T10:07:39.447Z,97112.66
2024-04-01T10:13:08.104Z,97114.55
2024-04-01T10:18:26.982Z,97107.73
